METAR

METAR LDZA 151230Z VRB05KT CAVOK 25/15 Q1024 NOSIG =
METAR LDSP 151230Z 23010KT CAVOK 28/14 Q1022 NOSIG=
METAR LDDU 151230Z 29009KT 250V330 CAVOK 26/12 Q1023 NOSIG =
METAR LDZD 151230Z VRB07KT CAVOK 28/13 Q1023 BECMG 30010KT =
METAR LDPL 151230Z 27009KT CAVOK 26/17 Q1023 NOSIG=
METAR LDOS 151230Z 29005KT 230V330 CAVOK 26/12 Q1025=
METAR LDSB 151200Z 22006KT 150V240 CAVOK 25/10 Q1025=
METAR LDRI 151230Z 33005KT 240V350 CAVOK 27/13 Q1023=
METAR LDLO 151200Z 29008KT CAVOK 26/15 Q1024=

TAF

TAF LDZA 151125Z 1512/1612 VRB02KT CAVOK
                 TX26/1513Z TN11/1604Z
    PROB30 TEMPO 1603/1606 1500 BCFG=
TAF LDSP 151125Z 1512/1612 23008KT CAVOK
                 TX29/1513Z TN19/1605Z
           TEMPO 1512/1514 23011KT
           BECMG 1515/1517 30007KT
           BECMG 1610/1612 23010KT=
TAF LDDU 151125Z 1512/1612 29010KT CAVOK
                 TX27/1512Z TN20/1605Z
           BECMG 1517/1519 02009KT
           BECMG 1610/1612 29009KT=
TAF LDZD 151125Z 1512/1612 30010KT CAVOK
                 TX29/1512Z TN15/1605Z
           BECMG 1516/1518 VRB02KT
    PROB40 TEMPO 1600/1605 1200 BCFG
    PROB30 TEMPO 1601/1605 0400 FG
           BECMG 1610/1612 30008KT=
TAF LDPL 151125Z 1512/1612 27008KT CAVOK
                 TX28/1512Z TN19/1604Z
           BECMG 1517/1519 VRB02KT
           BECMG 1610/1612 27008KT=
TAF LDOS 151125Z 1512/1612 VRB02KT CAVOK
                 TX25/1513Z TN10/1604Z=
TAF LDSB 151223Z 1513/1612 22008KT CAVOK
                 TX26/1514Z TN20/1604Z
           BECMG 1518/1520 VRB02KT
           BECMG 1610/1612 22010KT=
TAF LDRI 151125Z 1512/1612 32007KT CAVOK
                 TX28/1512Z TN19/1604Z
           BECMG 1515/1516 VRB02KT
           BECMG 1607/1609 29007KT=
TAF LDLO 151125Z 1512/1612 VRB02KT CAVOK
                 TX29/1512Z TN21/1604Z
           TEMPO 1608/1612 22006KT=

SIGMET

AIRMET

Remark

Ukoliko se brzina i smjer vjetra ne mogu odrediti zbog privremenog kvara sustava/indikatora,
informacija o vjetru u METAR izvješću bit će prikazana kao "/////KT".

 

Disclaimer

 

In case of temporary system/sensor failure, wind speed and direction data will be represented as "/////KT" in METAR report.

 

If you cannot log in with your user account, please contact stjepko.jancijev@crocontrol.hr.
Specifically, the website deactivates user accounts that have not been used for more than 365 days, so they must be reactivated.
 

         

      Politika MET podataka      

 

Ukoliko se svojim korisničkim računom ne možete logirati na web stranicu, molim vas da se obratite na stjepko.jancijev@crocontrol.hr.

Naime, web stranica deaktivira korisničke račune koji nisu korišteni više od 365 dana te ih je potrebno ponovno aktivirati.